Time;durP1;ratioP1;P1;durP2;ratioP2;P2;SDS_P1;SDS_P2;PMS_P1;PMS_P2;Temp;Humidity;BMP_temperature;BMP_pressure;BME280_temperature;BME280_humidity;BME280_pressure;Samples;Min_cycle;Max_cycle;Signal;HPM_P1;HPM_P2
2021/09/03 00:00:16;;;;;;;;;;;12.30;99.90;;;;;;4994210;28;20012;-74
2021/09/03 00:02:43;;;;;;;;;;;12.20;99.90;;;;;;4998171;28;20020;-74
2021/09/03 00:05:18;;;;;;;;;;;12.20;99.90;;;;;;4982333;28;19925;-74
2021/09/03 00:07:45;;;;;;;;;;;12.10;99.90;;;;;;4997944;28;19930;-73
2021/09/03 00:10:18;;;;;;;;;;;12.10;99.90;;;;;;4998723;28;20017;-74
2021/09/03 00:12:50;;;;;;;;;;;12.10;99.90;;;;;;4997924;28;20020;-74
2021/09/03 00:15:17;;;;;;;;;;;12.10;99.90;;;;;;4997495;28;19925;-74
2021/09/03 00:17:48;;;;;;;;;;;12.00;99.90;;;;;;5015582;28;20388;-74
2021/09/03 00:20:15;;;;;;;;;;;11.90;99.90;;;;;;4997725;28;20028;-74
2021/09/03 00:22:43;;;;;;;;;;;11.90;99.90;;;;;;4997924;28;20215;-74
2021/09/03 00:25:10;;;;;;;;;;;11.90;99.90;;;;;;4997262;28;19932;-74
2021/09/03 00:27:37;;;;;;;;;;;11.90;99.90;;;;;;4998016;28;20043;-74
2021/09/03 00:30:09;;;;;;;;;;;11.90;99.90;;;;;;4997475;28;20388;-74
2021/09/03 00:32:41;;;;;;;;;;;11.80;99.90;;;;;;4998699;28;20323;-74
2021/09/03 00:35:08;;;;;;;;;;;11.90;99.90;;;;;;4997205;28;20384;-74
2021/09/03 00:37:34;;;;;;;;;;;11.90;99.90;;;;;;4997517;28;20281;-74
2021/09/03 00:40:01;;;;;;;;;;;11.90;99.90;;;;;;4997132;28;20032;-74
2021/09/03 00:42:33;;;;;;;;;;;11.80;99.90;;;;;;5014943;28;19935;-74
2021/09/03 00:45:00;;;;;;;;;;;11.70;99.90;;;;;;4996853;28;19925;-74
2021/09/03 00:47:31;;;;;;;;;;;11.70;99.90;;;;;;4998041;28;20011;-73
2021/09/03 00:50:04;;;;;;;;;;;11.70;99.90;;;;;;4998002;28;19929;-73
2021/09/03 00:52:31;;;;;;;;;;;11.70;99.90;;;;;;4996322;28;19929;-74
2021/09/03 00:55:03;;;;;;;;;;;11.70;99.90;;;;;;4996690;28;19929;-73
2021/09/03 00:57:30;;;;;;;;;;;11.70;99.90;;;;;;4997118;28;20380;-74
2021/09/03 01:00:03;;;;;;;;;;;11.70;99.90;;;;;;5013103;28;19932;-74
2021/09/03 01:02:35;;;;;;;;;;;11.60;99.90;;;;;;4980960;28;19925;-74
2021/09/03 01:05:02;;;;;;;;;;;11.70;99.90;;;;;;5012352;28;20033;-73
2021/09/03 01:07:33;;;;;;;;;;;11.60;99.90;;;;;;4997131;28;19929;-74
2021/09/03 01:10:00;;;;;;;;;;;11.60;99.90;;;;;;5013797;28;19932;-74
2021/09/03 01:12:27;;;;;;;;;;;11.50;99.90;;;;;;4995892;28;20024;-74
2021/09/03 01:14:53;;;;;;;;;;;11.50;99.90;;;;;;5013604;28;20299;-74
2021/09/03 01:17:20;;;;;;;;;;;11.40;99.90;;;;;;5012178;28;20422;-74
2021/09/03 01:19:52;;;;;;;;;;;11.40;99.90;;;;;;4995957;28;19929;-74
2021/09/03 01:22:23;;;;;;;;;;;11.40;99.90;;;;;;5013848;28;20316;-74
2021/09/03 01:24:55;;;;;;;;;;;11.40;99.90;;;;;;4996436;28;19929;-73
2021/09/03 01:27:22;;;;;;;;;;;11.30;99.90;;;;;;5012325;28;20011;-74
2021/09/03 01:29:53;;;;;;;;;;;11.30;99.90;;;;;;4996201;28;19951;-74
2021/09/03 01:32:25;;;;;;;;;;;11.20;99.90;;;;;;4996443;28;19940;-73
2021/09/03 01:34:56;;;;;;;;;;;11.10;99.90;;;;;;4996972;28;19925;-74
2021/09/03 01:37:23;;;;;;;;;;;11.10;99.90;;;;;;5013830;28;19936;-74
2021/09/03 01:39:50;;;;;;;;;;;11.10;99.90;;;;;;4995830;28;19925;-74
2021/09/03 01:42:21;;;;;;;;;;;11.10;99.90;;;;;;4995556;28;19932;-74
2021/09/03 01:44:48;;;;;;;;;;;11.20;99.90;;;;;;4995107;28;19925;-74
2021/09/03 01:47:15;;;;;;;;;;;11.20;99.90;;;;;;4995684;28;19929;-74
2021/09/03 01:49:46;;;;;;;;;;;11.10;99.90;;;;;;5013060;28;19929;-74
2021/09/03 01:52:18;;;;;;;;;;;11.10;99.90;;;;;;4995898;28;19925;-74
2021/09/03 01:54:45;;;;;;;;;;;11.10;99.90;;;;;;5011893;28;19926;-74
2021/09/03 01:57:11;;;;;;;;;;;11.00;99.90;;;;;;4995991;28;19926;-74
2021/09/03 01:59:43;;;;;;;;;;;11.00;99.90;;;;;;4997029;28;19925;-74
2021/09/03 02:02:15;;;;;;;;;;;11.00;99.90;;;;;;4995782;28;19931;-74
2021/09/03 02:04:41;;;;;;;;;;;11.00;99.90;;;;;;4995450;28;19948;-74
2021/09/03 02:07:08;;;;;;;;;;;10.90;99.90;;;;;;5013349;28;20396;-73
2021/09/03 02:09:40;;;;;;;;;;;10.90;99.90;;;;;;5011860;28;20380;-73
2021/09/03 02:12:12;;;;;;;;;;;10.90;99.90;;;;;;5013237;28;19932;-74
2021/09/03 02:14:43;;;;;;;;;;;10.90;99.90;;;;;;4995470;28;19932;-74
2021/09/03 02:17:15;;;;;;;;;;;10.90;99.90;;;;;;5013289;28;19932;-74
2021/09/03 02:19:46;;;;;;;;;;;10.80;99.90;;;;;;5011989;28;20328;-74
2021/09/03 02:22:13;;;;;;;;;;;10.80;99.90;;;;;;5012894;28;19929;-74
2021/09/03 02:24:40;;;;;;;;;;;10.70;99.90;;;;;;5010884;28;19932;-74
2021/09/03 02:27:11;;;;;;;;;;;10.70;99.90;;;;;;4980119;28;19925;-74
2021/09/03 02:29:43;;;;;;;;;;;10.70;99.90;;;;;;4995267;28;20437;-74
2021/09/03 02:32:10;;;;;;;;;;;10.60;99.90;;;;;;5012876;28;19932;-74
2021/09/03 02:34:36;;;;;;;;;;;10.60;99.90;;;;;;4994824;28;20461;-74
2021/09/03 02:37:03;;;;;;;;;;;10.50;99.90;;;;;;5011628;28;20024;-73
2021/09/03 02:39:29;;;;;;;;;;;10.50;99.90;;;;;;4995393;28;19926;-73
2021/09/03 02:41:56;;;;;;;;;;;10.50;99.90;;;;;;4995196;28;20380;-73
2021/09/03 02:44:23;;;;;;;;;;;10.50;99.90;;;;;;4994727;28;19925;-74
2021/09/03 02:46:49;;;;;;;;;;;10.50;99.90;;;;;;4995181;28;19932;-73
2021/09/03 02:49:21;;;;;;;;;;;10.50;99.90;;;;;;5012807;28;19979;-74
2021/09/03 02:51:48;;;;;;;;;;;10.40;99.90;;;;;;4994933;28;19932;-74
2021/09/03 02:54:14;;;;;;;;;;;10.30;99.90;;;;;;4994718;28;19925;-73
2021/09/03 02:56:41;;;;;;;;;;;10.30;99.90;;;;;;5012541;28;19932;-74
2021/09/03 02:59:12;;;;;;;;;;;10.30;99.90;;;;;;5011895;28;19932;-74
2021/09/03 03:01:44;;;;;;;;;;;10.30;99.90;;;;;;4994659;28;19936;-74
2021/09/03 03:04:11;;;;;;;;;;;10.30;99.90;;;;;;4994521;28;19936;-74
2021/09/03 03:06:42;;;;;;;;;;;10.30;99.90;;;;;;4994626;28;19969;-74
2021/09/03 03:09:14;;;;;;;;;;;10.30;99.90;;;;;;4994834;28;19929;-74
2021/09/03 03:11:45;;;;;;;;;;;10.30;99.90;;;;;;4979449;28;19925;-73
2021/09/03 03:14:27;;;;;;;;;;;10.30;99.90;;;;;;5010795;28;19926;-74
2021/09/03 03:16:54;;;;;;;;;;;10.20;99.90;;;;;;4994808;28;20036;-74
2021/09/03 03:19:21;;;;;;;;;;;10.20;99.90;;;;;;4994757;28;20410;-74
2021/09/03 03:21:53;;;;;;;;;;;10.10;99.90;;;;;;4995711;28;19936;-73
2021/09/03 03:24:25;;;;;;;;;;;10.10;99.90;;;;;;4994438;28;19932;-74
2021/09/03 03:26:57;;;;;;;;;;;10.10;99.90;;;;;;4994526;28;20501;-73
2021/09/03 03:29:24;;;;;;;;;;;10.10;99.90;;;;;;5010924;28;19931;-74
2021/09/03 03:31:55;;;;;;;;;;;10.10;99.90;;;;;;4995528;28;19925;-74
2021/09/03 03:34:22;;;;;;;;;;;10.10;99.90;;;;;;4994483;28;20020;-74
2021/09/03 03:36:49;;;;;;;;;;;10.00;99.90;;;;;;4998370;28;20012;-74
2021/09/03 03:39:20;;;;;;;;;;;10.00;99.90;;;;;;4998396;28;19926;-74
2021/09/03 03:41:53;;;;;;;;;;;10.00;99.90;;;;;;4999414;28;19925;-73
2021/09/03 03:44:20;;;;;;;;;;;10.00;99.90;;;;;;4998328;28;19925;-73
2021/09/03 03:46:52;;;;;;;;;;;9.90;99.90;;;;;;4983032;28;19925;-74
2021/09/03 03:49:18;;;;;;;;;;;10.00;99.90;;;;;;5014518;28;19963;-74
2021/09/03 03:51:50;;;;;;;;;;;9.90;99.90;;;;;;4997528;28;19926;-74
2021/09/03 03:54:18;;;;;;;;;;;9.90;99.90;;;;;;5013976;28;20016;-74
2021/09/03 03:56:45;;;;;;;;;;;9.80;99.90;;;;;;5014003;28;20348;-74
2021/09/03 03:59:11;;;;;;;;;;;9.70;99.90;;;;;;5013871;28;19925;-74
2021/09/03 04:01:43;;;;;;;;;;;9.70;99.90;;;;;;4998280;28;20411;-73
2021/09/03 04:04:15;;;;;;;;;;;9.70;99.90;;;;;;4997108;28;19929;-73
2021/09/03 04:06:41;;;;;;;;;;;9.70;99.90;;;;;;5014885;28;20463;-74
2021/09/03 04:09:13;;;;;;;;;;;9.70;99.90;;;;;;5013729;28;19926;-74
2021/09/03 04:11:47;;;;;;;;;;;9.70;99.90;;;;;;4998033;28;20015;-74
2021/09/03 04:14:15;;;;;;;;;;;9.70;99.90;;;;;;4997114;28;20356;-74
2021/09/03 04:16:42;;;;;;;;;;;9.70;99.90;;;;;;4997427;28;20024;-74
2021/09/03 04:19:14;;;;;;;;;;;9.80;99.90;;;;;;4997320;28;19925;-74
2021/09/03 04:21:40;;;;;;;;;;;9.60;99.90;;;;;;5014725;28;19931;-74
2021/09/03 04:24:12;;;;;;;;;;;9.60;99.90;;;;;;5013357;28;19929;-73
2021/09/03 04:26:44;;;;;;;;;;;9.60;99.90;;;;;;4997124;28;19925;-74
2021/09/03 04:29:10;;;;;;;;;;;9.50;99.90;;;;;;5013340;28;20028;-74
2021/09/03 04:31:42;;;;;;;;;;;9.50;99.90;;;;;;4981512;28;19937;-74
2021/09/03 04:34:08;;;;;;;;;;;9.50;99.90;;;;;;4996904;28;20025;-74
2021/09/03 04:36:35;;;;;;;;;;;9.50;99.90;;;;;;4997337;28;19953;-73
2021/09/03 04:39:07;;;;;;;;;;;9.50;99.90;;;;;;5015108;28;20410;-74
2021/09/03 04:41:38;;;;;;;;;;;9.60;99.90;;;;;;5013613;28;19929;-73
2021/09/03 04:44:10;;;;;;;;;;;9.60;99.90;;;;;;5013407;28;19936;-74
2021/09/03 04:46:37;;;;;;;;;;;9.60;99.90;;;;;;4996767;28;19969;-74
2021/09/03 04:49:03;;;;;;;;;;;9.60;99.90;;;;;;4997470;28;19932;-74
2021/09/03 04:51:35;;;;;;;;;;;9.60;99.90;;;;;;4998157;28;19936;-74
2021/09/03 04:54:07;;;;;;;;;;;9.60;99.90;;;;;;4997118;28;20048;-73
2021/09/03 04:56:38;;;;;;;;;;;9.50;99.90;;;;;;4997972;28;20311;-74
2021/09/03 04:59:10;;;;;;;;;;;9.60;99.90;;;;;;4997236;28;19925;-74
2021/09/03 05:01:42;;;;;;;;;;;9.50;99.90;;;;;;4996068;28;19926;-75
2021/09/03 05:04:13;;;;;;;;;;;9.50;99.90;;;;;;4976426;28;20029;-74
2021/09/03 05:06:40;;;;;;;;;;;9.50;99.90;;;;;;4957587;28;20020;-74
2021/09/03 05:09:07;;;;;;;;;;;9.40;99.90;;;;;;4957713;28;20001;-74
2021/09/03 05:11:39;;;;;;;;;;;9.40;99.90;;;;;;4965485;28;19936;-74
2021/09/03 05:14:06;;;;;;;;;;;9.40;99.90;;;;;;4973900;28;20020;-74
2021/09/03 05:16:32;;;;;;;;;;;9.40;99.90;;;;;;4974821;28;20389;-74
2021/09/03 05:18:59;;;;;;;;;;;9.30;99.90;;;;;;5002784;28;20379;-74
2021/09/03 05:21:26;;;;;;;;;;;9.30;99.90;;;;;;4981153;28;20036;-74
2021/09/03 05:23:58;;;;;;;;;;;9.30;99.90;;;;;;4978422;28;19926;-74
2021/09/03 05:26:29;;;;;;;;;;;9.20;99.90;;;;;;5004682;28;20347;-75
2021/09/03 05:28:56;;;;;;;;;;;9.20;99.90;;;;;;4980116;28;20033;-74
2021/09/03 05:31:23;;;;;;;;;;;9.20;99.90;;;;;;5000150;28;19933;-73
2021/09/03 05:33:49;;;;;;;;;;;9.20;99.90;;;;;;5003460;28;20033;-73
2021/09/03 05:36:24;;;;;;;;;;;9.30;99.90;;;;;;4976609;28;20387;-73
2021/09/03 05:38:56;;;;;;;;;;;9.30;99.90;;;;;;4977493;28;20559;-74
2021/09/03 05:41:27;;;;;;;;;;;9.30;99.90;;;;;;4998662;28;19930;-74
2021/09/03 05:43:54;;;;;;;;;;;9.40;99.90;;;;;;4985883;28;20479;-74
2021/09/03 05:46:21;;;;;;;;;;;9.50;99.90;;;;;;4975916;28;20393;-73
2021/09/03 05:48:52;;;;;;;;;;;9.60;99.90;;;;;;4987353;28;19926;-74
2021/09/03 05:51:24;;;;;;;;;;;9.60;99.90;;;;;;4980837;28;19953;-74
2021/09/03 05:53:50;;;;;;;;;;;9.70;99.90;;;;;;4979953;28;20004;-74
2021/09/03 05:56:22;;;;;;;;;;;9.70;99.90;;;;;;5004815;28;19961;-74
2021/09/03 05:58:54;;;;;;;;;;;9.70;99.90;;;;;;4961901;28;19981;-74
2021/09/03 06:01:21;;;;;;;;;;;9.80;99.90;;;;;;4967539;28;19964;-74
2021/09/03 06:03:53;;;;;;;;;;;9.80;99.90;;;;;;4986195;28;19926;-74
2021/09/03 06:06:24;;;;;;;;;;;9.80;99.90;;;;;;4975784;28;19933;-74
2021/09/03 06:08:56;;;;;;;;;;;9.80;99.90;;;;;;5003548;28;20400;-74
2021/09/03 06:11:28;;;;;;;;;;;9.80;99.90;;;;;;4997902;28;19932;-74
2021/09/03 06:13:55;;;;;;;;;;;9.80;99.90;;;;;;5011556;28;20008;-74
2021/09/03 06:16:27;;;;;;;;;;;9.80;99.90;;;;;;4973587;28;20373;-74
2021/09/03 06:18:54;;;;;;;;;;;9.90;99.90;;;;;;5004743;28;20385;-74
2021/09/03 06:21:20;;;;;;;;;;;10.00;99.90;;;;;;4981712;28;19930;-73
2021/09/03 06:23:47;;;;;;;;;;;10.00;99.90;;;;;;4991362;28;19926;-73
2021/09/03 06:26:14;;;;;;;;;;;10.10;99.90;;;;;;5010872;28;20024;-74
2021/09/03 06:28:41;;;;;;;;;;;10.10;99.90;;;;;;4983609;28;19980;-74
2021/09/03 06:31:08;;;;;;;;;;;10.10;99.90;;;;;;4979537;28;20024;-74
2021/09/03 06:33:39;;;;;;;;;;;10.20;99.90;;;;;;4986397;28;19956;-74
2021/09/03 06:36:11;;;;;;;;;;;10.30;99.90;;;;;;4991762;28;19932;-75
2021/09/03 06:38:38;;;;;;;;;;;10.30;99.90;;;;;;4973896;28;19973;-74
2021/09/03 06:41:04;;;;;;;;;;;10.40;99.90;;;;;;4974087;28;20028;-74
2021/09/03 06:43:31;;;;;;;;;;;10.40;99.90;;;;;;4991291;28;19961;-75
2021/09/03 06:45:58;;;;;;;;;;;10.50;99.90;;;;;;4973225;28;19925;-74
2021/09/03 06:48:29;;;;;;;;;;;10.50;99.90;;;;;;4975072;28;19929;-75
2021/09/03 06:51:01;;;;;;;;;;;10.60;99.90;;;;;;4990192;28;20024;-74
2021/09/03 06:53:28;;;;;;;;;;;10.70;99.90;;;;;;4974603;28;20363;-74
2021/09/03 06:55:54;;;;;;;;;;;10.80;99.90;;;;;;4975709;28;19940;-74
2021/09/03 06:58:21;;;;;;;;;;;10.90;99.90;;;;;;4989182;28;20037;-74
2021/09/03 07:00:53;;;;;;;;;;;11.00;99.90;;;;;;4985512;28;19934;-74
2021/09/03 07:03:20;;;;;;;;;;;11.10;99.90;;;;;;4985346;28;20344;-74
2021/09/03 07:05:46;;;;;;;;;;;11.20;99.90;;;;;;4974431;28;20020;-74
2021/09/03 07:08:13;;;;;;;;;;;11.30;99.90;;;;;;4953162;28;19926;-74
2021/09/03 07:10:39;;;;;;;;;;;11.40;99.90;;;;;;4975863;28;19958;-74
2021/09/03 07:13:12;;;;;;;;;;;11.50;99.90;;;;;;4954053;28;20596;-74
2021/09/03 07:15:43;;;;;;;;;;;11.60;99.90;;;;;;4969093;28;20475;-74
2021/09/03 07:18:10;;;;;;;;;;;11.80;99.90;;;;;;4963795;28;20009;-74
2021/09/03 07:20:37;;;;;;;;;;;12.10;99.90;;;;;;4942768;28;20464;-74
2021/09/03 07:23:03;;;;;;;;;;;12.20;99.90;;;;;;4988406;28;20357;-74
2021/09/03 07:25:30;;;;;;;;;;;12.40;99.90;;;;;;4972015;28;20025;-74
2021/09/03 07:27:57;;;;;;;;;;;12.60;99.90;;;;;;4976437;28;20013;-74
2021/09/03 07:30:23;;;;;;;;;;;12.80;99.90;;;;;;4974360;28;19926;-74
2021/09/03 07:32:55;;;;;;;;;;;13.00;99.90;;;;;;4975552;28;19925;-74
2021/09/03 07:35:27;;;;;;;;;;;13.10;99.90;;;;;;4973941;28;19976;-74
2021/09/03 07:37:54;;;;;;;;;;;13.10;99.90;;;;;;4948311;28;19926;-74
2021/09/03 07:40:21;;;;;;;;;;;13.20;99.90;;;;;;4974411;28;19926;-75
2021/09/03 07:42:48;;;;;;;;;;;13.30;99.90;;;;;;4974545;28;19930;-73
2021/09/03 07:45:20;;;;;;;;;;;13.40;99.90;;;;;;4991401;28;19969;-74
2021/09/03 07:47:52;;;;;;;;;;;13.50;99.90;;;;;;4974715;28;20017;-74
2021/09/03 07:50:24;;;;;;;;;;;13.60;99.90;;;;;;4975171;28;19968;-75
2021/09/03 07:52:50;;;;;;;;;;;13.70;99.90;;;;;;4974340;28;20017;-75
2021/09/03 07:55:17;;;;;;;;;;;13.80;99.90;;;;;;4974182;28;20024;-74
2021/09/03 07:57:44;;;;;;;;;;;13.90;99.90;;;;;;4991853;28;19968;-74
2021/09/03 08:00:16;;;;;;;;;;;13.90;99.90;;;;;;4975267;28;19965;-74
2021/09/03 08:02:43;;;;;;;;;;;14.00;99.90;;;;;;4991895;28;20353;-74
2021/09/03 08:05:10;;;;;;;;;;;14.20;99.90;;;;;;4974904;28;19926;-74
2021/09/03 08:07:41;;;;;;;;;;;14.30;99.90;;;;;;4962358;28;19926;-74
2021/09/03 08:10:12;;;;;;;;;;;14.30;99.90;;;;;;4989761;28;19926;-74
2021/09/03 08:12:44;;;;;;;;;;;14.40;99.90;;;;;;4974836;28;19926;-74
2021/09/03 08:15:11;;;;;;;;;;;14.50;99.90;;;;;;4970569;28;19985;-74
2021/09/03 08:17:38;;;;;;;;;;;14.60;99.90;;;;;;4972343;28;19961;-74
2021/09/03 08:20:10;;;;;;;;;;;14.70;99.90;;;;;;4979563;28;20349;-75
2021/09/03 08:22:37;;;;;;;;;;;14.90;99.90;;;;;;4985677;28;20025;-75
2021/09/03 08:25:04;;;;;;;;;;;15.00;99.90;;;;;;4998624;28;19929;-74
2021/09/03 08:27:30;;;;;;;;;;;15.10;99.90;;;;;;4994378;28;20472;-74
2021/09/03 08:29:57;;;;;;;;;;;15.20;99.90;;;;;;4992600;28;20024;-74
2021/09/03 08:32:29;;;;;;;;;;;15.30;99.90;;;;;;4961740;28;19927;-75
2021/09/03 08:35:01;;;;;;;;;;;15.40;99.90;;;;;;5014384;28;20335;-73
2021/09/03 08:37:33;;;;;;;;;;;15.50;99.90;;;;;;4980002;28;19926;-75
2021/09/03 08:40:05;;;;;;;;;;;15.60;99.90;;;;;;5000356;28;20432;-74
2021/09/03 08:42:37;;;;;;;;;;;15.70;99.90;;;;;;4969954;28;19992;-74
2021/09/03 08:45:10;;;;;;;;;;;15.80;99.90;;;;;;4993132;28;19964;-75
2021/09/03 08:47:43;;;;;;;;;;;16.00;99.90;;;;;;4986341;28;19926;-73
2021/09/03 08:50:16;;;;;;;;;;;16.00;99.90;;;;;;4994093;28;19932;-74
2021/09/03 08:52:44;;;;;;;;;;;16.10;99.90;;;;;;4975629;28;20384;-74
2021/09/03 08:55:12;;;;;;;;;;;16.30;99.90;;;;;;4976539;28;20361;-74
2021/09/03 08:57:40;;;;;;;;;;;16.40;99.90;;;;;;4990628;28;20380;-74
2021/09/03 09:00:35;;;;;;;;;;;16.50;99.90;;;;;;4975919;28;19929;-73
2021/09/03 09:03:10;;;;;;;;;;;16.50;99.90;;;;;;4958032;28;20392;-73
2021/09/03 09:05:49;;;;;;;;;;;16.60;99.90;;;;;;4959875;28;19925;-74
2021/09/03 09:08:22;;;;;;;;;;;16.80;99.90;;;;;;4990790;28;20273;-74
2021/09/03 09:10:50;;;;;;;;;;;16.80;99.90;;;;;;4988179;28;20365;-72
2021/09/03 09:13:27;;;;;;;;;;;16.90;99.90;;;;;;4974463;28;20024;-73
2021/09/03 09:16:02;;;;;;;;;;;17.10;99.90;;;;;;4973772;28;20448;-74
2021/09/03 09:18:32;;;;;;;;;;;17.20;99.90;;;;;;4988029;28;20029;-74
2021/09/03 09:21:07;;;;;;;;;;;17.30;99.90;;;;;;4975688;28;19929;-73
2021/09/03 09:23:40;;;;;;;;;;;17.40;99.90;;;;;;4993237;28;19980;-74
2021/09/03 09:26:12;;;;;;;;;;;17.50;99.90;;;;;;4974171;28;20281;-73
2021/09/03 09:28:39;;;;;;;;;;;17.60;99.90;;;;;;4959114;28;20032;-74
2021/09/03 09:31:06;;;;;;;;;;;17.70;99.90;;;;;;4985147;28;19933;-72
2021/09/03 09:33:43;;;;;;;;;;;17.80;99.90;;;;;;4975625;28;19930;-73
2021/09/03 09:36:12;;;;;;;;;;;17.80;99.90;;;;;;4973068;28;19962;-73
2021/09/03 09:38:44;;;;;;;;;;;18.00;99.90;;;;;;4975190;28;19925;-74
2021/09/03 09:41:20;;;;;;;;;;;18.10;99.90;;;;;;4973556;28;19930;-73
2021/09/03 09:43:52;;;;;;;;;;;18.30;99.90;;;;;;4958444;28;19936;-74
2021/09/03 09:46:37;;;;;;;;;;;18.30;99.90;;;;;;4975501;28;19926;-74
2021/09/03 09:49:08;;;;;;;;;;;18.40;99.90;;;;;;4982109;28;19956;-73
2021/09/03 09:51:45;;;;;;;;;;;18.60;99.90;;;;;;4975202;28;19930;-73
2021/09/03 09:54:14;;;;;;;;;;;18.70;99.90;;;;;;4974140;28;19926;-74
2021/09/03 09:56:46;;;;;;;;;;;18.80;99.90;;;;;;4976545;28;19957;-74
2021/09/03 09:59:18;;;;;;;;;;;18.80;99.90;;;;;;4979817;28;19957;-73
2021/09/03 10:01:52;;;;;;;;;;;18.90;99.90;;;;;;4991870;28;20017;-73
2021/09/03 10:04:19;;;;;;;;;;;19.00;99.90;;;;;;4980291;28;19967;-74
2021/09/03 10:06:47;;;;;;;;;;;19.10;99.90;;;;;;4995334;28;20016;-74
2021/09/03 10:09:21;;;;;;;;;;;19.20;99.90;;;;;;4979698;28;20025;-74
2021/09/03 10:11:57;;;;;;;;;;;19.30;99.90;;;;;;4970374;28;20410;-73
2021/09/03 10:14:30;;;;;;;;;;;19.30;99.90;;;;;;4972705;28;20021;-73
2021/09/03 10:16:57;;;;;;;;;;;19.50;99.90;;;;;;4996109;28;20020;-73
2021/09/03 10:19:28;;;;;;;;;;;19.50;99.90;;;;;;4993356;28;19957;-73
2021/09/03 10:22:04;;;;;;;;;;;19.60;99.90;;;;;;4988517;28;20009;-72
2021/09/03 10:24:38;;;;;;;;;;;19.60;99.90;;;;;;4974746;28;20025;-74
2021/09/03 10:27:10;;;;;;;;;;;19.70;99.90;;;;;;4999691;28;19932;-74
2021/09/03 10:29:37;;;;;;;;;;;19.80;99.90;;;;;;4994935;28;20016;-74
2021/09/03 10:32:14;;;;;;;;;;;19.90;99.90;;;;;;4987540;28;20021;-73
2021/09/03 10:34:50;;;;;;;;;;;20.00;99.90;;;;;;4977743;28;20025;-74
2021/09/03 10:37:16;;;;;;;;;;;20.10;99.90;;;;;;4973320;28;20033;-73
2021/09/03 10:39:51;;;;;;;;;;;20.20;99.90;;;;;;4989153;28;19953;-74
2021/09/03 10:42:43;;;;;;;;;;;20.30;99.90;;;;;;4977427;28;20003;-74
2021/09/03 10:45:18;;;;;;;;;;;20.30;99.90;;;;;;4988434;28;19952;-74
2021/09/03 10:47:47;;;;;;;;;;;20.40;99.90;;;;;;4951351;28;20013;-74
2021/09/03 10:50:19;;;;;;;;;;;20.40;99.90;;;;;;4982982;28;20025;-73
2021/09/03 10:53:04;;;;;;;;;;;20.60;99.90;;;;;;4991617;28;19926;-74
2021/09/03 10:55:54;;;;;;;;;;;20.60;99.90;;;;;;4991067;28;19936;-74
2021/09/03 10:58:44;;;;;;;;;;;20.70;99.90;;;;;;4974824;28;19929;-73
2021/09/03 11:01:11;;;;;;;;;;;20.80;99.90;;;;;;4993090;28;20072;-73
2021/09/03 11:03:47;;;;;;;;;;;20.90;99.90;;;;;;4957421;28;19930;-73
2021/09/03 11:06:23;;;;;;;;;;;21.00;99.90;;;;;;4974708;28;20282;-73
2021/09/03 11:08:56;;;;;;;;;;;21.00;99.90;;;;;;4993623;28;19932;-73
2021/09/03 11:11:39;;;;;;;;;;;21.00;99.90;;;;;;4974848;28;19930;-73
2021/09/03 11:14:09;;;;;;;;;;;21.10;99.90;;;;;;4974247;28;19925;-73
2021/09/03 11:16:42;;;;;;;;;;;21.10;99.90;;;;;;4972530;28;19926;-75
2021/09/03 11:19:14;;;;;;;;;;;21.20;99.90;;;;;;4973968;28;19933;-72
2021/09/03 11:21:45;;;;;;;;;;;21.20;99.90;;;;;;4974321;28;19930;-73
2021/09/03 11:24:21;;;;;;;;;;;21.30;99.90;;;;;;4980429;28;19973;-73
2021/09/03 11:26:55;;;;;;;;;;;21.40;99.90;;;;;;4972138;28;19926;-73
2021/09/03 11:29:28;;;;;;;;;;;21.50;99.90;;;;;;4982446;28;19926;-75
2021/09/03 11:32:06;;;;;;;;;;;21.60;99.90;;;;;;4965516;28;19948;-75
2021/09/03 11:34:56;;;;;;;;;;;21.70;99.90;;;;;;4971551;28;19933;-73
2021/09/03 11:37:29;;;;;;;;;;;21.70;99.90;;;;;;4989050;28;19938;-73
2021/09/03 11:40:10;;;;;;;;;;;21.70;99.90;;;;;;4986017;28;19925;-75
2021/09/03 11:42:46;;;;;;;;;;;21.80;99.90;;;;;;4989627;28;19925;-73
2021/09/03 11:45:22;;;;;;;;;;;21.80;99.90;;;;;;4989516;28;19936;-73
2021/09/03 11:47:56;;;;;;;;;;;21.60;99.90;;;;;;4989606;28;19925;-74
2021/09/03 11:50:29;;;;;;;;;;;21.40;99.90;;;;;;4973415;28;19929;-73
2021/09/03 11:52:57;;;;;;;;;;;21.20;99.90;;;;;;4971898;28;20040;-73
2021/09/03 11:55:32;;;;;;;;;;;21.10;99.90;;;;;;4989580;28;19932;-73
2021/09/03 11:58:03;;;;;;;;;;;21.00;99.90;;;;;;4994330;28;20403;-75
2021/09/03 12:00:37;;;;;;;;;;;20.80;99.90;;;;;;4995954;28;20013;-74
2021/09/03 12:03:05;;;;;;;;;;;20.70;99.90;;;;;;4978217;28;19964;-73
2021/09/03 12:05:38;;;;;;;;;;;20.70;99.90;;;;;;4977343;28;19953;-73
2021/09/03 12:08:15;;;;;;;;;;;20.70;99.90;;;;;;4977789;28;19925;-75
2021/09/03 12:10:58;;;;;;;;;;;20.80;99.90;;;;;;4973430;28;19926;-73
2021/09/03 12:13:30;;;;;;;;;;;20.90;99.90;;;;;;4963893;28;19932;-74
2021/09/03 12:16:20;;;;;;;;;;;20.90;99.90;;;;;;4968876;28;20017;-73
2021/09/03 12:18:48;;;;;;;;;;;20.90;99.90;;;;;;4971943;28;19926;-75
2021/09/03 12:21:21;;;;;;;;;;;21.10;99.90;;;;;;4973881;28;19929;-74
2021/09/03 12:23:52;;;;;;;;;;;21.30;99.90;;;;;;4978610;28;19932;-74
2021/09/03 12:26:47;;;;;;;;;;;21.30;99.90;;;;;;4961710;28;19972;-74
2021/09/03 12:29:29;;;;;;;;;;;21.30;99.90;;;;;;4976709;28;19926;-74
2021/09/03 12:32:03;;;;;;;;;;;21.30;99.90;;;;;;4994103;28;19925;-75
2021/09/03 12:34:35;;;;;;;;;;;21.40;99.90;;;;;;4980548;28;20025;-74
2021/09/03 12:37:08;;;;;;;;;;;21.50;99.90;;;;;;5003035;28;19979;-75
2021/09/03 12:39:35;;;;;;;;;;;21.60;99.90;;;;;;4977127;28;19925;-74
2021/09/03 12:42:11;;;;;;;;;;;21.80;99.90;;;;;;4988054;28;20510;-74
2021/09/03 12:44:43;;;;;;;;;;;22.00;99.90;;;;;;4980881;28;20363;-75
2021/09/03 12:47:10;;;;;;;;;;;22.20;99.90;;;;;;4998656;28;19925;-75
2021/09/03 12:49:41;;;;;;;;;;;22.40;99.90;;;;;;4994597;28;20004;-74
2021/09/03 12:52:15;;;;;;;;;;;22.50;99.90;;;;;;4984002;28;20396;-74
2021/09/03 12:54:46;;;;;;;;;;;22.60;99.90;;;;;;4985386;28;20193;-75
2021/09/03 12:57:13;;;;;;;;;;;22.70;99.90;;;;;;4976877;28;20360;-75
2021/09/03 12:59:45;;;;;;;;;;;22.80;99.90;;;;;;4974855;28;20465;-75
2021/09/03 13:02:16;;;;;;;;;;;22.80;99.90;;;;;;4969993;28;20040;-75
2021/09/03 13:04:48;;;;;;;;;;;22.90;99.90;;;;;;4976003;28;19936;-75
2021/09/03 13:07:20;;;;;;;;;;;23.00;99.90;;;;;;4977136;28;19930;-75
2021/09/03 13:09:46;;;;;;;;;;;23.10;99.90;;;;;;4976296;28;20028;-75
2021/09/03 13:12:18;;;;;;;;;;;23.20;99.90;;;;;;4992259;28;20025;-74
2021/09/03 13:14:50;;;;;;;;;;;23.30;99.90;;;;;;4992676;28;20009;-75
2021/09/03 13:17:22;;;;;;;;;;;23.30;99.90;;;;;;4976780;28;20029;-75
2021/09/03 13:19:48;;;;;;;;;;;23.30;99.90;;;;;;4993035;28;20083;-74
2021/09/03 13:22:15;;;;;;;;;;;23.20;99.90;;;;;;4972510;28;20341;-74
2021/09/03 13:24:47;;;;;;;;;;;23.00;99.90;;;;;;4972899;28;20017;-74
2021/09/03 13:27:18;;;;;;;;;;;23.10;99.90;;;;;;4989117;28;20020;-73
2021/09/03 13:29:50;;;;;;;;;;;23.20;99.90;;;;;;4983573;28;19929;-75
2021/09/03 13:32:17;;;;;;;;;;;23.30;99.90;;;;;;4977993;28;20028;-74
2021/09/03 13:34:43;;;;;;;;;;;23.40;99.90;;;;;;4992067;28;20005;-75
2021/09/03 13:37:19;;;;;;;;;;;23.50;99.90;;;;;;4975779;28;19929;-75
2021/09/03 13:39:50;;;;;;;;;;;23.50;99.90;;;;;;4992880;28;19940;-74
2021/09/03 13:42:22;;;;;;;;;;;23.60;99.90;;;;;;4959667;28;19926;-74
2021/09/03 13:44:50;;;;;;;;;;;23.60;99.90;;;;;;4974690;28;20029;-75
2021/09/03 13:47:17;;;;;;;;;;;23.70;99.90;;;;;;4985954;28;19932;-74
2021/09/03 13:49:48;;;;;;;;;;;23.90;99.90;;;;;;4996511;28;19934;-73
2021/09/03 13:52:20;;;;;;;;;;;23.90;99.90;;;;;;4989751;28;19968;-72
2021/09/03 13:54:47;;;;;;;;;;;23.90;99.90;;;;;;4974761;28;19929;-74
2021/09/03 13:57:14;;;;;;;;;;;24.00;99.90;;;;;;4990076;28;19933;-75
2021/09/03 13:59:41;;;;;;;;;;;24.00;99.90;;;;;;4974303;28;19926;-73
2021/09/03 14:02:14;;;;;;;;;;;24.20;99.90;;;;;;4992694;28;20537;-74
2021/09/03 14:04:46;;;;;;;;;;;24.30;99.90;;;;;;4992468;28;19929;-74
2021/09/03 14:07:18;;;;;;;;;;;24.40;99.90;;;;;;4955952;28;20415;-73
2021/09/03 14:09:51;;;;;;;;;;;24.30;99.90;;;;;;4965066;28;20576;-75
2021/09/03 14:12:17;;;;;;;;;;;24.30;99.90;;;;;;5006761;28;20021;-73
2021/09/03 14:14:49;;;;;;;;;;;24.50;99.90;;;;;;4970659;28;19930;-73
2021/09/03 14:17:21;;;;;;;;;;;24.60;99.90;;;;;;4983561;28;19933;-73
2021/09/03 14:19:48;;;;;;;;;;;24.70;99.90;;;;;;4981393;28;20016;-74
2021/09/03 14:22:19;;;;;;;;;;;24.80;99.90;;;;;;4978505;28;19933;-74
2021/09/03 14:24:46;;;;;;;;;;;24.90;99.90;;;;;;4992095;28;20301;-74
2021/09/03 14:27:13;;;;;;;;;;;25.00;99.90;;;;;;4975663;28;19961;-74
2021/09/03 14:29:45;;;;;;;;;;;25.00;99.90;;;;;;4992422;28;20357;-75
2021/09/03 14:32:11;;;;;;;;;;;25.10;99.90;;;;;;4976709;28;20020;-77
2021/09/03 14:34:44;;;;;;;;;;;25.20;99.90;;;;;;4982234;28;19930;-74
2021/09/03 14:37:16;;;;;;;;;;;25.40;99.90;;;;;;4973113;28;20341;-75